sensor_id;sensor_type;location;lat;lon;timestamp;pressure;altitude;pressure_sealevel;temperature;humidity
32873;BME280;19224;52.462;16.898;2023-01-26T00:01:36;101110.71;;;2.73;100.00
32873;BME280;19224;52.462;16.898;2023-01-26T00:04:06;101112.03;;;2.64;100.00
32873;BME280;19224;52.462;16.898;2023-01-26T00:06:36;101112.48;;;2.65;100.00
32873;BME280;19224;52.462;16.898;2023-01-26T00:09:13;101110.72;;;2.70;100.00
32873;BME280;19224;52.462;16.898;2023-01-26T00:11:44;101103.62;;;2.68;100.00
32873;BME280;19224;52.462;16.898;2023-01-26T00:14:14;101104.52;;;2.71;100.00
32873;BME280;19224;52.462;16.898;2023-01-26T00:16:45;101108.06;;;2.75;100.00
32873;BME280;19224;52.462;16.898;2023-01-26T00:19:15;101104.50;;;2.70;100.00
32873;BME280;19224;52.462;16.898;2023-01-26T00:21:46;101104.52;;;2.76;100.00
32873;BME280;19224;52.462;16.898;2023-01-26T00:24:17;101101.85;;;2.67;100.00
32873;BME280;19224;52.462;16.898;2023-01-26T00:26:47;101099.20;;;2.68;100.00
32873;BME280;19224;52.462;16.898;2023-01-26T00:29:17;101092.55;;;2.71;100.00
32873;BME280;19224;52.462;16.898;2023-01-26T00:31:48;101093.86;;;2.74;100.00
32873;BME280;19224;52.462;16.898;2023-01-26T00:34:18;101089.88;;;2.79;100.00
32873;BME280;19224;52.462;16.898;2023-01-26T00:36:49;101089.44;;;2.78;100.00
32873;BME280;19224;52.462;16.898;2023-01-26T00:39:20;101089.42;;;2.81;100.00
32873;BME280;19224;52.462;16.898;2023-01-26T00:41:51;101082.36;;;2.78;100.00
32873;BME280;19224;52.462;16.898;2023-01-26T00:44:42;101084.13;;;2.79;100.00
32873;BME280;19224;52.462;16.898;2023-01-26T00:47:13;101085.89;;;2.80;100.00
32873;BME280;19224;52.462;16.898;2023-01-26T00:49:44;101083.22;;;2.83;100.00
32873;BME280;19224;52.462;16.898;2023-01-26T00:52:15;101081.44;;;2.85;100.00
32873;BME280;19224;52.462;16.898;2023-01-26T00:54:45;101084.11;;;2.82;100.00
32873;BME280;19224;52.462;16.898;2023-01-26T00:57:16;101087.67;;;2.78;100.00
32873;BME280;19224;52.462;16.898;2023-01-26T00:59:46;101082.34;;;2.81;100.00
32873;BME280;19224;52.462;16.898;2023-01-26T01:02:17;101078.80;;;2.78;100.00
32873;BME280;19224;52.462;16.898;2023-01-26T01:04:48;101079.23;;;2.79;100.00
32873;BME280;19224;52.462;16.898;2023-01-26T01:07:19;101076.15;;;2.79;100.00
32873;BME280;19224;52.462;16.898;2023-01-26T01:09:49;101084.13;;;2.70;100.00
32873;BME280;19224;52.462;16.898;2023-01-26T01:12:20;101073.49;;;2.70;100.00
32873;BME280;19224;52.462;16.898;2023-01-26T01:14:50;101070.83;;;2.70;100.00
32873;BME280;19224;52.462;16.898;2023-01-26T01:17:21;101071.26;;;2.74;100.00
32873;BME280;19224;52.462;16.898;2023-01-26T01:19:52;101071.27;;;2.76;100.00
32873;BME280;19224;52.462;16.898;2023-01-26T01:22:22;101063.28;;;2.74;100.00
32873;BME280;19224;52.462;16.898;2023-01-26T01:24:53;101065.48;;;2.76;100.00
32873;BME280;19224;52.462;16.898;2023-01-26T01:27:23;101055.30;;;2.74;100.00
32873;BME280;19224;52.462;16.898;2023-01-26T01:29:54;101054.41;;;2.71;100.00
32873;BME280;19224;52.462;16.898;2023-01-26T01:32:24;101055.33;;;2.73;100.00
32873;BME280;19224;52.462;16.898;2023-01-26T01:34:55;101062.85;;;2.75;100.00
32873;BME280;19224;52.462;16.898;2023-01-26T01:37:27;101057.52;;;2.73;100.00
32873;BME280;19224;52.462;16.898;2023-01-26T01:39:58;101052.67;;;2.73;100.00
32873;BME280;19224;52.462;16.898;2023-01-26T01:42:28;101051.31;;;2.74;100.00
32873;BME280;19224;52.462;16.898;2023-01-26T01:45:39;101054.88;;;2.75;100.00
32873;BME280;19224;52.462;16.898;2023-01-26T01:48:14;101052.66;;;2.76;100.00
32873;BME280;19224;52.462;16.898;2023-01-26T01:50:44;101043.78;;;2.75;100.00
32873;BME280;19224;52.462;16.898;2023-01-26T01:53:18;101038.89;;;2.76;100.00
32873;BME280;19224;52.462;16.898;2023-01-26T01:55:54;101038.89;;;2.76;100.00
32873;BME280;19224;52.462;16.898;2023-01-26T01:58:28;101034.91;;;2.72;100.00
32873;BME280;19224;52.462;16.898;2023-01-26T02:00:59;101029.16;;;2.72;100.00
32873;BME280;19224;52.462;16.898;2023-01-26T02:03:31;101019.41;;;2.74;100.00
32873;BME280;19224;52.462;16.898;2023-01-26T02:08:51;101011.44;;;2.71;100.00
32873;BME280;19224;52.462;16.898;2023-01-26T02:14:03;101007.03;;;2.67;100.00
32873;BME280;19224;52.462;16.898;2023-01-26T02:16:35;101002.13;;;2.70;100.00
32873;BME280;19224;52.462;16.898;2023-01-26T02:19:17;101000.34;;;2.72;100.00
32873;BME280;19224;52.462;16.898;2023-01-26T02:21:43;100999.91;;;2.72;100.00
32873;BME280;19224;52.462;16.898;2023-01-26T02:24:24;100998.58;;;2.66;100.00
32873;BME280;19224;52.462;16.898;2023-01-26T02:26:54;100990.63;;;2.69;100.00
32873;BME280;19224;52.462;16.898;2023-01-26T02:29:24;100985.76;;;2.67;100.00
32873;BME280;19224;52.462;16.898;2023-01-26T02:31:55;100987.06;;;2.69;100.00
32873;BME280;19224;52.462;16.898;2023-01-26T02:34:26;100985.28;;;2.71;100.00
32873;BME280;19224;52.462;16.898;2023-01-26T02:37:00;100982.17;;;2.74;100.00
32873;BME280;19224;52.462;16.898;2023-01-26T02:39:47;100975.52;;;2.74;100.00
32873;BME280;19224;52.462;16.898;2023-01-26T02:42:18;100972.87;;;2.74;100.00
32873;BME280;19224;52.462;16.898;2023-01-26T02:45:13;100970.20;;;2.74;100.00
32873;BME280;19224;52.462;16.898;2023-01-26T02:47:44;100971.52;;;2.77;100.00
32873;BME280;19224;52.462;16.898;2023-01-26T02:50:15;100963.56;;;2.74;100.00
32873;BME280;19224;52.462;16.898;2023-01-26T02:52:45;100971.08;;;2.76;100.00
32873;BME280;19224;52.462;16.898;2023-01-26T02:55:16;100969.31;;;2.75;100.00
32873;BME280;19224;52.462;16.898;2023-01-26T02:58:03;100967.09;;;2.76;100.00
32873;BME280;19224;52.462;16.898;2023-01-26T03:00:36;100965.79;;;2.69;100.00
32873;BME280;19224;52.462;16.898;2023-01-26T03:03:21;100964.02;;;2.72;100.00
32873;BME280;19224;52.462;16.898;2023-01-26T03:05:51;100966.23;;;2.76;100.00
32873;BME280;19224;52.462;16.898;2023-01-26T03:08:22;100962.67;;;2.77;100.00
32873;BME280;19224;52.462;16.898;2023-01-26T03:10:52;100963.55;;;2.79;100.00
32873;BME280;19224;52.462;16.898;2023-01-26T03:13:23;100958.22;;;2.77;100.00
32873;BME280;19224;52.462;16.898;2023-01-26T03:15:53;100958.22;;;2.77;100.00
32873;BME280;19224;52.462;16.898;2023-01-26T03:18:24;100952.92;;;2.80;100.00
32873;BME280;19224;52.462;16.898;2023-01-26T03:21:15;100961.77;;;2.82;100.00
32873;BME280;19224;52.462;16.898;2023-01-26T03:24:04;100957.34;;;2.81;100.00
32873;BME280;19224;52.462;16.898;2023-01-26T03:26:52;100948.49;;;2.79;100.00
32873;BME280;19224;52.462;16.898;2023-01-26T03:29:40;100949.34;;;2.84;100.00
32873;BME280;19224;52.462;16.898;2023-01-26T03:32:12;100943.16;;;2.82;100.00
32873;BME280;19224;52.462;16.898;2023-01-26T03:34:43;100936.06;;;2.81;100.00
32873;BME280;19224;52.462;16.898;2023-01-26T03:37:13;100932.95;;;2.82;100.00
32873;BME280;19224;52.462;16.898;2023-01-26T03:39:44;100934.28;;;2.83;100.00
32873;BME280;19224;52.462;16.898;2023-01-26T03:42:33;100926.28;;;2.86;100.00
32873;BME280;19224;52.462;16.898;2023-01-26T03:45:22;100927.63;;;2.82;100.00
32873;BME280;19224;52.462;16.898;2023-01-26T03:48:11;100917.45;;;2.81;100.00
32873;BME280;19224;52.462;16.898;2023-01-26T03:51:00;100924.54;;;2.82;100.00
32873;BME280;19224;52.462;16.898;2023-01-26T03:53:48;100911.22;;;2.85;100.00
32873;BME280;19224;52.462;16.898;2023-01-26T03:56:36;100918.31;;;2.82;100.00
32873;BME280;19224;52.462;16.898;2023-01-26T03:59:08;100913.02;;;2.85;100.00
32873;BME280;19224;52.462;16.898;2023-01-26T04:01:44;100917.43;;;2.84;100.00
32873;BME280;19224;52.462;16.898;2023-01-26T04:04:32;100912.11;;;2.84;100.00
32873;BME280;19224;52.462;16.898;2023-01-26T04:07:21;100909.94;;;2.79;100.00
32873;BME280;19224;52.462;16.898;2023-01-26T04:10:10;100916.52;;;2.88;100.00
32873;BME280;19224;52.462;16.898;2023-01-26T04:12:40;100908.13;;;2.84;100.00
32873;BME280;19224;52.462;16.898;2023-01-26T04:15:11;100907.67;;;2.89;100.00
32873;BME280;19224;52.462;16.898;2023-01-26T04:18:06;100908.99;;;2.86;100.00
32873;BME280;19224;52.462;16.898;2023-01-26T04:20:54;100904.61;;;2.78;100.00
32873;BME280;19224;52.462;16.898;2023-01-26T04:23:43;100900.16;;;2.80;100.00
32873;BME280;19224;52.462;16.898;2023-01-26T04:26:14;100900.58;;;2.85;100.00
32873;BME280;19224;52.462;16.898;2023-01-26T04:28:45;100903.24;;;2.85;100.00
32873;BME280;19224;52.462;16.898;2023-01-26T04:31:16;100898.36;;;2.88;100.00
32873;BME280;19224;52.462;16.898;2023-01-26T04:33:47;100889.49;;;2.90;100.00
32873;BME280;19224;52.462;16.898;2023-01-26T04:36:17;100892.59;;;2.91;100.00
32873;BME280;19224;52.462;16.898;2023-01-26T04:38:48;100890.80;;;2.92;100.00
32873;BME280;19224;52.462;16.898;2023-01-26T04:41:19;100889.05;;;2.86;100.00
32873;BME280;19224;52.462;16.898;2023-01-26T04:43:50;100882.40;;;2.86;100.00
32873;BME280;19224;52.462;16.898;2023-01-26T04:46:20;100881.56;;;2.75;100.00
32873;BME280;19224;52.462;16.898;2023-01-26T04:48:51;100878.50;;;2.65;100.00
32873;BME280;19224;52.462;16.898;2023-01-26T04:51:23;100874.52;;;2.68;100.00
32873;BME280;19224;52.462;16.898;2023-01-26T04:53:53;100870.96;;;2.68;100.00
32873;BME280;19224;52.462;16.898;2023-01-26T04:56:27;100872.71;;;2.73;100.00
32873;BME280;19224;52.462;16.898;2023-01-26T04:59:01;100873.11;;;2.82;100.00
32873;BME280;19224;52.462;16.898;2023-01-26T05:01:32;100873.98;;;2.85;100.00
32873;BME280;19224;52.462;16.898;2023-01-26T05:04:04;100867.77;;;2.86;100.00
32873;BME280;19224;52.462;16.898;2023-01-26T05:06:35;100879.75;;;2.82;100.00
32873;BME280;19224;52.462;16.898;2023-01-26T05:09:06;100878.01;;;2.76;100.00
32873;BME280;19224;52.462;16.898;2023-01-26T05:11:37;100873.63;;;2.69;100.00
32873;BME280;19224;52.462;16.898;2023-01-26T05:14:08;100871.42;;;2.66;100.00
32873;BME280;19224;52.462;16.898;2023-01-26T05:16:38;100877.25;;;2.47;100.00
32873;BME280;19224;52.462;16.898;2023-01-26T05:19:09;100867.95;;;2.41;100.00
32873;BME280;19224;52.462;16.898;2023-01-26T05:21:39;100867.48;;;2.55;100.00
32873;BME280;19224;52.462;16.898;2023-01-26T05:24:11;100871.46;;;2.52;100.00
32873;BME280;19224;52.462;16.898;2023-01-26T05:26:42;100862.16;;;2.52;100.00
32873;BME280;19224;52.462;16.898;2023-01-26T05:29:12;100864.78;;;2.67;100.00
32873;BME280;19224;52.462;16.898;2023-01-26T05:31:43;100853.66;;;2.71;100.00
32873;BME280;19224;52.462;16.898;2023-01-26T05:34:13;100868.72;;;2.73;100.00
32873;BME280;19224;52.462;16.898;2023-01-26T05:36:44;100858.07;;;2.78;100.00
32873;BME280;19224;52.462;16.898;2023-01-26T05:39:14;100866.05;;;2.79;100.00
32873;BME280;19224;52.462;16.898;2023-01-26T05:41:45;100870.45;;;2.83;100.00
32873;BME280;19224;52.462;16.898;2023-01-26T05:44:15;100865.15;;;2.77;100.00
32873;BME280;19224;52.462;16.898;2023-01-26T05:46:46;100854.98;;;2.78;100.00
32873;BME280;19224;52.462;16.898;2023-01-26T05:49:16;100855.39;;;2.82;100.00
32873;BME280;19224;52.462;16.898;2023-01-26T05:51:47;100858.94;;;2.81;100.00
32873;BME280;19224;52.462;16.898;2023-01-26T05:54:17;100851.84;;;2.77;100.00
32873;BME280;19224;52.462;16.898;2023-01-26T05:56:48;100857.64;;;2.78;100.00
32873;BME280;19224;52.462;16.898;2023-01-26T05:59:19;100854.97;;;2.75;100.00
32873;BME280;19224;52.462;16.898;2023-01-26T06:01:49;100858.95;;;2.75;100.00
32873;BME280;19224;52.462;16.898;2023-01-26T06:04:20;100857.59;;;2.86;100.00
32873;BME280;19224;52.462;16.898;2023-01-26T06:06:56;100851.41;;;2.82;100.00
32873;BME280;19224;52.462;16.898;2023-01-26T06:09:27;100859.41;;;2.79;100.00
32873;BME280;19224;52.462;16.898;2023-01-26T06:11:58;100861.58;;;2.83;100.00
32873;BME280;19224;52.462;16.898;2023-01-26T06:14:33;100855.36;;;2.85;100.00
32873;BME280;19224;52.462;16.898;2023-01-26T06:17:04;100860.73;;;2.79;100.00
32873;BME280;19224;52.462;16.898;2023-01-26T06:19:34;100860.27;;;2.81;100.00
32873;BME280;19224;52.462;16.898;2023-01-26T06:22:10;100863.38;;;2.82;100.00
32873;BME280;19224;52.462;16.898;2023-01-26T06:24:41;100858.48;;;2.83;100.00
32873;BME280;19224;52.462;16.898;2023-01-26T06:27:14;100859.41;;;2.79;100.00
32873;BME280;19224;52.462;16.898;2023-01-26T06:29:45;100851.84;;;2.83;100.00
32873;BME280;19224;52.462;16.898;2023-01-26T06:32:16;100851.41;;;2.84;100.00
32873;BME280;19224;52.462;16.898;2023-01-26T06:34:46;100862.03;;;2.81;100.00
32873;BME280;19224;52.462;16.898;2023-01-26T06:37:17;100862.05;;;2.78;100.00
32873;BME280;19224;52.462;16.898;2023-01-26T06:39:48;100865.60;;;2.75;100.00
32873;BME280;19224;52.462;16.898;2023-01-26T06:42:18;100858.95;;;2.75;100.00
32873;BME280;19224;52.462;16.898;2023-01-26T06:44:49;100851.44;;;2.72;100.00
32873;BME280;19224;52.462;16.898;2023-01-26T06:47:19;100848.38;;;2.63;100.00
32873;BME280;19224;52.462;16.898;2023-01-26T06:49:50;100851.54;;;2.55;100.00
32873;BME280;19224;52.462;16.898;2023-01-26T06:52:30;100851.50;;;2.63;100.00
32873;BME280;19224;52.462;16.898;2023-01-26T06:54:59;100854.13;;;2.64;100.00
32873;BME280;19224;52.462;16.898;2023-01-26T06:57:30;100858.11;;;2.69;100.00
32873;BME280;19224;52.462;16.898;2023-01-26T07:00:02;100860.78;;;2.64;100.00
32873;BME280;19224;52.462;16.898;2023-01-26T07:02:34;100866.12;;;2.63;100.00
32873;BME280;19224;52.462;16.898;2023-01-26T07:05:05;100872.39;;;2.39;100.00
32873;BME280;19224;52.462;16.898;2023-01-26T07:07:35;100871.05;;;2.42;100.00
32873;BME280;19224;52.462;16.898;2023-01-26T07:10:07;100861.33;;;2.38;100.00
32873;BME280;19224;52.462;16.898;2023-01-26T07:12:40;100861.75;;;2.42;100.00
32873;BME280;19224;52.462;16.898;2023-01-26T07:15:12;100860.43;;;2.45;100.00
32873;BME280;19224;52.462;16.898;2023-01-26T07:17:44;100852.48;;;2.36;100.00
32873;BME280;19224;52.462;16.898;2023-01-26T07:20:15;100855.56;;;2.42;100.00
32873;BME280;19224;52.462;16.898;2023-01-26T07:22:45;100850.28;;;2.34;100.00
32873;BME280;19224;52.462;16.898;2023-01-26T07:25:17;100853.37;;;2.34;100.00
32873;BME280;19224;52.462;16.898;2023-01-26T07:27:47;100852.03;;;2.32;100.00
32873;BME280;19224;52.462;16.898;2023-01-26T07:30:18;100865.33;;;2.34;100.00
32873;BME280;19224;52.462;16.898;2023-01-26T07:32:49;100862.67;;;2.35;100.00
32873;BME280;19224;52.462;16.898;2023-01-26T07:35:19;100860.41;;;2.48;100.00
32873;BME280;19224;52.462;16.898;2023-01-26T07:37:50;100859.95;;;2.50;100.00
32873;BME280;19224;52.462;16.898;2023-01-26T07:40:20;100860.87;;;2.46;100.00
32873;BME280;19224;52.462;16.898;2023-01-26T07:42:50;100865.31;;;2.44;100.00
32873;BME280;19224;52.462;16.898;2023-01-26T07:45:21;100856.02;;;2.38;100.00
32873;BME280;19224;52.462;16.898;2023-01-26T07:47:56;100863.55;;;2.39;100.00
32873;BME280;19224;52.462;16.898;2023-01-26T07:50:27;100862.18;;;2.43;100.00
32873;BME280;19224;52.462;16.898;2023-01-26T07:53:01;100867.53;;;2.42;100.00
32873;BME280;19224;52.462;16.898;2023-01-26T07:55:32;100872.33;;;2.54;100.00
32873;BME280;19224;52.462;16.898;2023-01-26T07:58:02;100878.06;;;2.64;100.00
32873;BME280;19224;52.462;16.898;2023-01-26T08:00:33;100869.61;;;2.78;100.00
32873;BME280;19224;52.462;16.898;2023-01-26T08:03:03;100877.09;;;2.88;100.00
32873;BME280;19224;52.462;16.898;2023-01-26T08:05:34;100873.13;;;2.80;100.00
32873;BME280;19224;52.462;16.898;2023-01-26T08:08:06;100871.84;;;2.73;100.00
32873;BME280;19224;52.462;16.898;2023-01-26T08:10:37;100867.81;;;2.80;100.00
32873;BME280;19224;52.462;16.898;2023-01-26T08:13:08;100863.80;;;2.83;100.00
32873;BME280;19224;52.462;16.898;2023-01-26T08:15:38;100860.75;;;2.75;100.00
32873;BME280;19224;52.462;16.898;2023-01-26T08:18:09;100859.33;;;2.88;100.00
32873;BME280;19224;52.462;16.898;2023-01-26T08:20:39;100848.75;;;2.84;100.00
32873;BME280;19224;52.462;16.898;2023-01-26T08:23:10;100846.04;;;2.91;100.00
32873;BME280;19224;52.462;16.898;2023-01-26T08:25:40;100846.00;;;3.00;100.00
32873;BME280;19224;52.462;16.898;2023-01-26T08:28:11;100847.41;;;2.82;100.00
32873;BME280;19224;52.462;16.898;2023-01-26T08:30:42;100850.61;;;2.64;100.00
32873;BME280;19224;52.462;16.898;2023-01-26T08:33:12;100853.31;;;2.52;100.00
32873;BME280;19224;52.462;16.898;2023-01-26T08:35:42;100846.20;;;2.52;100.00
32873;BME280;19224;52.462;16.898;2023-01-26T08:38:13;100840.39;;;2.69;100.00
32873;BME280;19224;52.462;16.898;2023-01-26T08:40:43;100843.98;;;2.53;100.00
32873;BME280;19224;52.462;16.898;2023-01-26T08:43:14;100843.57;;;2.49;100.00
32873;BME280;19224;52.462;16.898;2023-01-26T08:45:46;100851.06;;;2.60;100.00
32873;BME280;19224;52.462;16.898;2023-01-26T08:48:17;100852.80;;;2.70;100.00
32873;BME280;19224;52.462;16.898;2023-01-26T08:50:48;100847.91;;;2.70;100.00
32873;BME280;19224;52.462;16.898;2023-01-26T08:53:20;100861.23;;;2.61;100.00
32873;BME280;19224;52.462;16.898;2023-01-26T08:55:51;100861.65;;;2.66;100.00
32873;BME280;19224;52.462;16.898;2023-01-26T08:58:21;100852.25;;;2.87;100.00
32873;BME280;19224;52.462;16.898;2023-01-26T09:00:52;100853.98;;;3.00;100.00
32873;BME280;19224;52.462;16.898;2023-01-26T09:03:24;100863.38;;;2.82;100.00
32873;BME280;19224;52.462;16.898;2023-01-26T09:05:58;100851.80;;;2.92;100.00
32873;BME280;19224;52.462;16.898;2023-01-26T09:08:29;100849.57;;;2.93;100.00
32873;BME280;19224;52.462;16.898;2023-01-26T09:11:00;100856.15;;;3.05;100.00
32873;BME280;19224;52.462;16.898;2023-01-26T09:13:31;100858.38;;;3.03;100.00
32873;BME280;19224;52.462;16.898;2023-01-26T09:16:04;100862.88;;;2.95;100.00
32873;BME280;19224;52.462;16.898;2023-01-26T09:18:36;100862.92;;;2.80;100.00
32873;BME280;19224;52.462;16.898;2023-01-26T09:21:08;100861.05;;;2.98;100.00
32873;BME280;19224;52.462;16.898;2023-01-26T09:23:38;100864.17;;;2.96;100.00
32873;BME280;19224;52.462;16.898;2023-01-26T09:26:09;100863.33;;;2.91;100.00
32873;BME280;19224;52.462;16.898;2023-01-26T09:28:40;100857.16;;;2.83;100.00
32873;BME280;19224;52.462;16.898;2023-01-26T09:31:11;100865.50;;;2.96;100.00
32873;BME280;19224;52.462;16.898;2023-01-26T09:33:42;100863.72;;;3.01;100.00
32873;BME280;19224;52.462;16.898;2023-01-26T09:36:13;100861.47;;;3.05;100.00
32873;BME280;19224;52.462;16.898;2023-01-26T09:38:43;100857.96;;;2.97;100.00
32873;BME280;19224;52.462;16.898;2023-01-26T09:44:27;100853.53;;;2.96;100.00
32873;BME280;19224;52.462;16.898;2023-01-26T09:47:17;100864.14;;;3.07;100.00
32873;BME280;19224;52.462;16.898;2023-01-26T09:50:07;100857.94;;;3.03;100.00
32873;BME280;19224;52.462;16.898;2023-01-26T09:52:53;100856.17;;;3.02;100.00
32873;BME280;19224;52.462;16.898;2023-01-26T09:55:21;100851.21;;;3.15;100.00
32873;BME280;19224;52.462;16.898;2023-01-26T09:58:02;100861.34;;;3.25;100.00
32873;BME280;19224;52.462;16.898;2023-01-26T10:00:46;100854.74;;;3.19;100.00
32873;BME280;19224;52.462;16.898;2023-01-26T10:03:32;100855.23;;;3.09;100.00
32873;BME280;19224;52.462;16.898;2023-01-26T10:06:29;100851.82;;;2.89;100.00
32873;BME280;19224;52.462;16.898;2023-01-26T10:09:10;100848.72;;;2.85;100.00
32873;BME280;19224;52.462;16.898;2023-01-26T10:11:46;100845.66;;;2.75;100.00
32873;BME280;19224;52.462;16.898;2023-01-26T10:14:35;100859.81;;;2.83;100.00
32873;BME280;19224;52.462;16.898;2023-01-26T10:17:13;100851.82;;;2.89;100.00
32873;BME280;19224;52.462;16.898;2023-01-26T10:19:49;100839.00;;;2.81;100.00
32873;BME280;19224;52.462;16.898;2023-01-26T10:24:57;100838.52;;;2.88;100.00
32873;BME280;19224;52.462;16.898;2023-01-26T10:27:29;100831.39;;;2.96;100.00
32873;BME280;19224;52.462;16.898;2023-01-26T10:29:59;100834.87;;;3.07;100.00
32873;BME280;19224;52.462;16.898;2023-01-26T10:32:32;100833.92;;;3.15;100.00
32873;BME280;19224;52.462;16.898;2023-01-26T10:35:07;100828.54;;;3.23;100.00
32873;BME280;19224;52.462;16.898;2023-01-26T10:37:37;100828.94;;;3.28;100.00
32873;BME280;19224;52.462;16.898;2023-01-26T10:40:09;100828.52;;;3.29;100.00
32873;BME280;19224;52.462;16.898;2023-01-26T10:42:40;100823.06;;;3.42;100.00
32873;BME280;19224;52.462;16.898;2023-01-26T10:45:31;100815.94;;;3.44;100.00
32873;BME280;19224;52.462;16.898;2023-01-26T10:48:19;100811.95;;;3.47;100.00
32873;BME280;19224;52.462;16.898;2023-01-26T10:50:53;100803.95;;;3.46;100.00
32873;BME280;19224;52.462;16.898;2023-01-26T10:53:28;100802.59;;;3.50;100.00
32873;BME280;19224;52.462;16.898;2023-01-26T10:56:15;100794.56;;;3.56;100.00
32873;BME280;19224;52.462;16.898;2023-01-26T10:58:49;100801.62;;;3.60;100.00
32873;BME280;19224;52.462;16.898;2023-01-26T11:01:21;100799.39;;;3.63;100.00
32873;BME280;19224;52.462;16.898;2023-01-26T11:04:04;100802.95;;;3.60;100.00
32873;BME280;19224;52.462;16.898;2023-01-26T11:06:35;100794.45;;;3.65;100.00
32873;BME280;19224;52.462;16.898;2023-01-26T11:09:24;100792.34;;;3.56;100.00
32873;BME280;19224;52.462;16.898;2023-01-26T11:12:02;100790.65;;;3.47;100.00
32873;BME280;19224;52.462;16.898;2023-01-26T11:14:34;100785.83;;;3.39;100.00
32873;BME280;19224;52.462;16.898;2023-01-26T11:17:17;100786.85;;;3.22;100.00
32873;BME280;19224;52.462;16.898;2023-01-26T11:39:59;100761.55;;;2.64;100.00
32873;BME280;19224;52.462;16.898;2023-01-26T11:42:45;100762.87;;;2.62;100.00
32873;BME280;19224;52.462;16.898;2023-01-26T11:45:19;100756.22;;;2.61;100.00
32873;BME280;19224;52.462;16.898;2023-01-26T11:53:36;100743.20;;;2.87;100.00
32873;BME280;19224;52.462;16.898;2023-01-26T12:01:52;100740.95;;;2.93;100.00
32873;BME280;19224;52.462;16.898;2023-01-26T12:04:20;100737.45;;;2.86;100.00
32873;BME280;19224;52.462;16.898;2023-01-26T12:07:19;100742.80;;;2.83;100.00
32873;BME280;19224;52.462;16.898;2023-01-26T12:09:47;100740.02;;;2.98;100.00
32873;BME280;19224;52.462;16.898;2023-01-26T12:12:29;100723.66;;;2.93;100.00
32873;BME280;19224;52.462;16.898;2023-01-26T12:15:12;100728.55;;;2.93;100.00
32873;BME280;19224;52.462;16.898;2023-01-26T12:20:48;100710.79;;;2.95;100.00
32873;BME280;19224;52.462;16.898;2023-01-26T12:26:08;100705.47;;;2.94;100.00
32873;BME280;19224;52.462;16.898;2023-01-26T12:29:01;100702.94;;;2.80;100.00
32873;BME280;19224;52.462;16.898;2023-01-26T12:31:47;100713.72;;;2.59;100.00
32873;BME280;19224;52.462;16.898;2023-01-26T12:34:16;100718.13;;;2.60;100.00
32873;BME280;19224;52.462;16.898;2023-01-26T12:39:50;100719.41;;;2.69;100.00
32873;BME280;19224;52.462;16.898;2023-01-26T12:42:45;100722.45;;;2.79;100.00
32873;BME280;19224;52.462;16.898;2023-01-26T12:45:28;100720.62;;;2.84;100.00
32873;BME280;19224;52.462;16.898;2023-01-26T12:48:45;100717.47;;;2.92;100.00
32873;BME280;19224;52.462;16.898;2023-01-26T12:51:02;100714.78;;;2.95;100.00
32873;BME280;19224;52.462;16.898;2023-01-26T12:53:44;100708.09;;;2.98;100.00
32873;BME280;19224;52.462;16.898;2023-01-26T12:56:40;100708.03;;;3.07;100.00
32873;BME280;19224;52.462;16.898;2023-01-26T12:59:33;100713.62;;;2.71;100.00
32873;BME280;19224;52.462;16.898;2023-01-26T13:02:24;100709.30;;;2.58;100.00
32873;BME280;19224;52.462;16.898;2023-01-26T13:04:50;100716.75;;;2.69;100.00
32873;BME280;19224;52.462;16.898;2023-01-26T13:07:36;100704.79;;;2.69;100.00
32873;BME280;19224;52.462;16.898;2023-01-26T13:13:26;100708.37;;;2.62;100.00
32873;BME280;19224;52.462;16.898;2023-01-26T13:15:32;100702.65;;;2.58;100.00
32873;BME280;19224;52.462;16.898;2023-01-26T13:18:03;100701.78;;;2.55;100.00
32873;BME280;19224;52.462;16.898;2023-01-26T13:20:48;100695.97;;;2.61;100.00
32873;BME280;19224;52.462;16.898;2023-01-26T13:23:41;100698.69;;;2.55;100.00
32873;BME280;19224;52.462;16.898;2023-01-26T13:26:40;100708.42;;;2.53;100.00
32873;BME280;19224;52.462;16.898;2023-01-26T13:29:21;100710.16;;;2.60;100.00
32873;BME280;19224;52.462;16.898;2023-01-26T13:31:33;100709.16;;;2.78;100.00
32873;BME280;19224;52.462;16.898;2023-01-26T13:34:06;100706.92;;;2.77;100.00
32873;BME280;19224;52.462;16.898;2023-01-26T13:36:39;100709.23;;;2.64;100.00
32873;BME280;19224;52.462;16.898;2023-01-26T13:39:26;100704.51;;;2.41;100.00
32873;BME280;19224;52.462;16.898;2023-01-26T13:41:53;100708.93;;;2.42;100.00
32873;BME280;19224;52.462;16.898;2023-01-26T13:44:34;100707.28;;;2.24;100.00
32873;BME280;19224;52.462;16.898;2023-01-26T13:47:11;100712.92;;;2.44;100.00
32873;BME280;19224;52.462;16.898;2023-01-26T13:49:43;100712.00;;;2.49;100.00
32873;BME280;19224;52.462;16.898;2023-01-26T13:52:19;100712.92;;;2.42;100.00
32873;BME280;19224;52.462;16.898;2023-01-26T13:54:52;100714.73;;;2.37;100.00
32873;BME280;19224;52.462;16.898;2023-01-26T13:57:26;100712.84;;;2.57;100.00
32873;BME280;19224;52.462;16.898;2023-01-26T14:00:01;100711.05;;;2.59;100.00
32873;BME280;19224;52.462;16.898;2023-01-26T14:02:34;100706.20;;;2.57;100.00
32873;BME280;19224;52.462;16.898;2023-01-26T14:05:19;100707.98;;;2.52;100.00
32873;BME280;19224;52.462;16.898;2023-01-26T14:07:43;100705.77;;;2.53;100.00
32873;BME280;19224;52.462;16.898;2023-01-26T14:10:20;100709.27;;;2.60;100.00
32873;BME280;19224;52.462;16.898;2023-01-26T14:12:53;100703.05;;;2.62;100.00